Time;durP1;ratioP1;P1;durP2;ratioP2;P2;SDS_P1;SDS_P2;PMS_P1;PMS_P2;Temp;Humidity;BMP_temperature;BMP_pressure;BME280_temperature;BME280_humidity;BME280_pressure;Samples;Min_cycle;Max_cycle;Signal;HPM_P1;HPM_P2
2022/11/14 00:00:18;;;;;;;85.57;21.73;;;;;;;2.90;100.00;95910.31;1027827;28;20642;-69
2022/11/14 00:00:48;;;;;;;63.10;18.83;;;;;;;2.93;100.00;95906.53;1030632;28;20022;-71
2022/11/14 00:01:19;;;;;;;50.15;17.83;;;;;;;2.89;100.00;95906.16;1034945;28;20065;-70
2022/11/14 00:01:49;;;;;;;67.47;19.77;;;;;;;2.94;100.00;95913.28;1034637;28;20018;-69
2022/11/14 00:02:20;;;;;;;71.65;20.75;;;;;;;2.92;100.00;95915.28;1034321;28;20061;-70
2022/11/14 00:02:50;;;;;;;48.90;17.00;;;;;;;2.87;100.00;95918.53;1034608;28;20566;-69
2022/11/14 00:03:21;;;;;;;66.50;18.40;;;;;;;2.81;100.00;95914.16;1030818;28;20042;-70
2022/11/14 00:03:51;;;;;;;54.95;19.15;;;;;;;2.85;100.00;95920.53;1037229;28;20022;-70
2022/11/14 00:04:22;;;;;;;70.75;19.38;;;;;;;2.84;100.00;95916.34;1038854;28;20030;-70
2022/11/14 00:04:52;;;;;;;62.95;19.38;;;;;;;2.84;100.00;95919.72;1038527;28;20025;-69
2022/11/14 00:05:23;;;;;;;65.40;19.83;;;;;;;2.86;100.00;95919.53;1035816;28;20041;-70
2022/11/14 00:05:53;;;;;;;61.80;20.83;;;;;;;2.88;100.00;95920.09;1030609;28;20479;-70
2022/11/14 00:06:23;;;;;;;65.40;19.35;;;;;;;2.87;100.00;95918.53;1026821;28;20030;-69
2022/11/14 00:06:54;;;;;;;60.88;20.23;;;;;;;2.82;100.00;95905.41;1026555;28;20035;-71
2022/11/14 00:07:24;;;;;;;75.22;22.13;;;;;;;2.84;100.00;95918.94;1026514;28;20030;-72
2022/11/14 00:07:55;;;;;;;65.65;21.55;;;;;;;2.87;100.00;95917.72;1026759;28;20034;-70
2022/11/14 00:08:25;;;;;;;59.05;19.33;;;;;;;2.87;100.00;95917.72;1034841;28;20451;-69
2022/11/14 00:08:56;;;;;;;60.72;18.27;;;;;;;2.86;100.00;95916.16;1030293;28;20018;-69
2022/11/14 00:09:26;;;;;;;62.90;20.00;;;;;;;2.79;100.00;95903.25;1026711;28;20179;-70
2022/11/14 00:09:57;;;;;;;58.75;18.98;;;;;;;2.89;100.00;95918.31;1034433;28;20116;-68
2022/11/14 00:10:27;;;;;;;64.65;20.70;;;;;;;2.90;100.00;95917.31;1030575;28;20503;-70
2022/11/14 00:10:58;;;;;;;59.53;20.63;;;;;;;2.90;100.00;95915.50;1030451;28;20859;-69
2022/11/14 00:11:28;;;;;;;56.42;20.27;;;;;;;2.87;100.00;95921.13;1030423;28;20548;-69
2022/11/14 00:11:59;;;;;;;59.28;20.10;;;;;;;2.84;100.00;95918.94;1030744;28;20132;-66
2022/11/14 00:12:29;;;;;;;53.33;19.42;;;;;;;2.91;100.00;95924.88;1037390;28;20433;-67
2022/11/14 00:13:00;;;;;;;59.42;21.10;;;;;;;2.91;100.00;95926.66;1034542;28;20439;-70
2022/11/14 00:13:30;;;;;;;80.85;23.73;;;;;;;2.88;100.00;95916.72;1030608;28;20078;-70
2022/11/14 00:14:01;;;;;;;52.25;18.25;;;;;;;2.97;100.00;95924.03;1024745;28;20074;-69
2022/11/14 00:14:31;;;;;;;71.72;21.15;;;;;;;2.93;100.00;95925.47;1022628;28;20043;-70
2022/11/14 00:15:02;;;;;;;58.78;20.52;;;;;;;2.87;100.00;95913.34;1026683;28;20045;-69
2022/11/14 00:15:32;;;;;;;67.47;22.00;;;;;;;2.85;100.00;95920.53;1027519;28;20030;-68
2022/11/14 00:16:03;;;;;;;69.55;21.33;;;;;;;2.90;100.00;95923.28;1034662;28;20415;-69
2022/11/14 00:16:33;;;;;;;76.45;22.23;;;;;;;2.90;100.00;95922.50;1030509;28;20592;-68
2022/11/14 00:17:04;;;;;;;54.33;20.63;;;;;;;2.90;100.00;95920.69;1030541;28;20026;-69
2022/11/14 00:17:34;;;;;;;86.82;22.90;;;;;;;2.90;100.00;95923.28;1033319;28;20029;-71
2022/11/14 00:18:05;;;;;;;84.38;22.55;;;;;;;2.94;100.00;95926.25;1034858;28;20041;-70
2022/11/14 00:18:36;;;;;;;69.35;21.92;;;;;;;2.93;100.00;95925.47;1030567;28;20030;-71
2022/11/14 00:19:06;;;;;;;108.45;24.17;;;;;;;2.87;100.00;95928.88;1026223;28;20093;-71
2022/11/14 00:19:36;;;;;;;97.18;22.60;;;;;;;2.67;100.00;95900.50;1026644;28;20409;-69
2022/11/14 00:20:08;;;;;;;87.60;22.13;;;;;;;2.77;100.00;95916.38;1023599;28;20405;-69
2022/11/14 00:20:38;;;;;;;75.93;20.98;;;;;;;2.81;100.00;95930.50;1022486;28;20035;-68
2022/11/14 00:21:09;;;;;;;85.32;22.10;;;;;;;2.78;100.00;95928.34;1026464;28;20655;-70
2022/11/14 00:21:39;;;;;;;102.20;22.63;;;;;;;2.79;100.00;95931.75;1026700;28;20030;-71
2022/11/14 00:22:10;;;;;;;111.65;24.00;;;;;;;2.80;100.00;95933.31;1030811;28;20019;-71
2022/11/14 00:22:40;;;;;;;72.72;22.10;;;;;;;2.82;100.00;95933.91;1034252;28;20033;-69
2022/11/14 00:23:11;;;;;;;98.45;23.30;;;;;;;2.80;100.00;95933.31;1030590;28;20041;-70
2022/11/14 00:23:41;;;;;;;81.72;21.52;;;;;;;2.67;100.00;95907.50;1030585;28;20026;-70
2022/11/14 00:24:11;;;;;;;71.70;20.77;;;;;;;2.79;100.00;95927.34;1032650;28;20042;-70
2022/11/14 00:24:42;;;;;;;82.50;20.90;;;;;;;2.76;100.00;95934.75;1030536;28;20201;-69
2022/11/14 00:25:12;;;;;;;68.63;19.75;;;;;;;2.77;100.00;95929.34;1030481;28;20035;-70
2022/11/14 00:25:43;;;;;;;88.57;23.27;;;;;;;2.58;100.00;95899.97;1022899;28;20091;-70
2022/11/14 00:26:14;;;;;;;98.63;23.50;;;;;;;2.79;100.00;95932.53;1022903;28;20067;-70
2022/11/14 00:26:44;;;;;;;67.82;21.25;;;;;;;2.81;100.00;95919.34;1026653;28;21141;-69
2022/11/14 00:27:15;;;;;;;100.97;22.52;;;;;;;2.82;100.00;95931.31;1026662;28;20084;-70
2022/11/14 00:27:45;;;;;;;99.13;22.95;;;;;;;2.84;100.00;95931.88;1026339;28;20022;-71
2022/11/14 00:28:16;;;;;;;55.75;19.08;;;;;;;2.91;100.00;95934.44;1022558;28;20031;-71
2022/11/14 00:28:46;;;;;;;74.22;20.65;;;;;;;2.89;100.00;95937.25;1022525;28;20042;-70
2022/11/14 00:29:16;;;;;;;85.15;21.73;;;;;;;2.87;100.00;95933.28;1026435;28;20035;-69
2022/11/14 00:29:47;;;;;;;93.13;22.15;;;;;;;2.84;100.00;95939.66;1026419;28;20583;-68
2022/11/14 00:30:17;;;;;;;68.28;20.48;;;;;;;2.84;100.00;95935.28;1022576;28;20027;-69
2022/11/14 00:30:48;;;;;;;56.13;18.35;;;;;;;2.88;100.00;95930.47;1023286;28;20027;-70
2022/11/14 00:31:18;;;;;;;76.50;20.52;;;;;;;2.87;100.00;95930.69;1030641;28;20051;-70
2022/11/14 00:31:49;;;;;;;74.40;19.00;;;;;;;2.86;100.00;95921.34;1026161;28;20030;-72
2022/11/14 00:32:21;;;;;;;86.97;20.77;;;;;;;2.89;100.00;95926.88;1022276;28;20035;-71
2022/11/14 00:32:51;;;;;;;64.68;20.95;;;;;;;2.92;100.00;95928.25;1022246;28;20027;-69
2022/11/14 00:33:22;;;;;;;81.95;21.90;;;;;;;2.86;100.00;95924.72;1022347;28;20289;-71
2022/11/14 00:33:52;;;;;;;85.25;21.33;;;;;;;2.84;100.00;95924.13;1026937;28;20030;-70
2022/11/14 00:34:23;;;;;;;90.18;20.65;;;;;;;2.80;100.00;95921.16;1035070;28;20032;-70
2022/11/14 00:34:53;;;;;;;99.40;22.42;;;;;;;2.81;100.00;95921.94;1036212;28;20034;-70
2022/11/14 00:35:23;;;;;;;120.05;23.35;;;;;;;2.73;100.00;95911.84;1034679;28;20061;-69
2022/11/14 00:35:55;;;;;;;133.68;23.73;;;;;;;2.81;100.00;95924.53;1034513;28;20030;-68
2022/11/14 00:36:25;;;;;;;131.35;24.40;;;;;;;2.82;100.00;95920.97;1030427;28;20113;-71
2022/11/14 00:36:58;;;;;;;169.38;24.05;;;;;;;2.76;100.00;95917.41;1026311;28;20334;-68
2022/11/14 00:37:28;;;;;;;139.02;25.50;;;;;;;2.76;100.00;95921.78;1021006;29;20027;-70
2022/11/14 00:37:59;;;;;;;81.78;21.50;;;;;;;2.79;100.00;95918.78;1023236;28;20279;-70
2022/11/14 00:38:29;;;;;;;53.80;19.25;;;;;;;2.84;100.00;95914.53;1034535;28;20452;-69
2022/11/14 00:39:00;;;;;;;65.93;19.85;;;;;;;2.87;100.00;95921.13;1038704;28;20030;-71
2022/11/14 00:39:30;;;;;;;74.25;18.63;;;;;;;2.84;100.00;95914.53;1034580;28;20042;-70
2022/11/14 00:40:01;;;;;;;61.15;18.77;;;;;;;2.88;100.00;95917.50;1022189;28;20050;-71
2022/11/14 00:40:31;;;;;;;63.60;19.75;;;;;;;2.91;100.00;95922.28;1018489;29;20023;-68
2022/11/14 00:41:02;;;;;;;65.82;19.23;;;;;;;2.88;100.00;95907.16;1014765;29;20038;-69
2022/11/14 00:41:32;;;;;;;83.07;22.48;;;;;;;2.88;100.00;95922.69;1018300;29;20055;-70
2022/11/14 00:42:03;;;;;;;118.38;24.67;;;;;;;2.83;100.00;95910.38;1022381;29;20132;-69
2022/11/14 00:42:33;;;;;;;104.45;23.98;;;;;;;2.83;100.00;95919.94;1017911;29;20030;-70
2022/11/14 00:43:04;;;;;;;91.20;21.58;;;;;;;2.78;100.00;95914.59;1018773;28;20028;-72
2022/11/14 00:43:34;;;;;;;82.43;19.90;;;;;;;2.79;100.00;95923.97;1026221;28;20027;-69
2022/11/14 00:44:04;;;;;;;91.35;20.42;;;;;;;2.75;100.00;95917.59;1034597;28;20026;-68
2022/11/14 00:44:35;;;;;;;83.22;20.38;;;;;;;2.68;100.00;95906.47;1038617;28;20682;-69
2022/11/14 00:45:06;;;;;;;68.78;20.38;;;;;;;2.71;100.00;95908.66;1032342;28;20026;-70
2022/11/14 00:45:36;;;;;;;109.05;21.70;;;;;;;2.71;100.00;95916.44;1034557;28;20087;-69
2022/11/14 00:46:06;;;;;;;100.57;22.52;;;;;;;2.63;100.00;95908.91;1030272;28;20026;-72
2022/11/14 00:46:37;;;;;;;65.15;17.92;;;;;;;2.73;100.00;95920.41;1030494;28;20069;-70
2022/11/14 00:47:08;;;;;;;70.95;20.58;;;;;;;2.72;100.00;95916.22;1034456;28;20017;-68
2022/11/14 00:47:38;;;;;;;68.55;19.38;;;;;;;2.72;100.00;95924.00;1034716;28;20197;-70
2022/11/14 00:48:08;;;;;;;66.07;20.38;;;;;;;2.69;100.00;95921.03;1034395;28;20049;-71
2022/11/14 00:48:39;;;;;;;77.75;19.70;;;;;;;2.62;100.00;95907.34;1034413;28;20022;-69
2022/11/14 00:49:09;;;;;;;71.55;20.15;;;;;;;2.69;100.00;95918.44;1026621;28;20474;-67
2022/11/14 00:49:40;;;;;;;109.20;21.73;;;;;;;2.69;100.00;95918.44;1018637;29;20035;-71
2022/11/14 00:50:10;;;;;;;105.47;20.77;;;;;;;2.63;100.00;95919.28;1022180;28;20032;-70
2022/11/14 00:50:41;;;;;;;69.80;22.08;;;;;;;2.67;100.00;95920.44;1022532;28;20027;-68
2022/11/14 00:51:11;;;;;;;84.18;22.13;;;;;;;2.66;100.00;95916.28;1026744;28;20074;-68
2022/11/14 00:51:42;;;;;;;95.97;22.83;;;;;;;2.65;100.00;95925.03;1034416;28;20030;-70
2022/11/14 00:52:12;;;;;;;94.10;22.20;;;;;;;2.62;100.00;95918.47;1034019;28;20025;-70
2022/11/14 00:52:43;;;;;;;110.95;23.48;;;;;;;2.62;100.00;95926.25;1030390;28;20082;-71
2022/11/14 00:53:13;;;;;;;79.68;22.98;;;;;;;2.65;100.00;95920.66;1034609;28;20498;-71
2022/11/14 00:53:43;;;;;;;84.60;20.77;;;;;;;2.68;100.00;95919.44;1029479;28;20054;-68
2022/11/14 00:54:14;;;;;;;102.25;22.98;;;;;;;2.67;100.00;95920.44;1030620;28;20143;-71
2022/11/14 00:54:44;;;;;;;80.13;20.88;;;;;;;2.68;100.00;95922.03;1030309;28;20026;-70
2022/11/14 00:55:15;;;;;;;65.68;20.60;;;;;;;2.70;100.00;95926.00;1026258;28;20034;-72
2022/11/14 00:55:45;;;;;;;66.38;19.77;;;;;;;2.71;100.00;95929.38;1030406;28;20073;-68
2022/11/14 00:56:16;;;;;;;82.82;21.00;;;;;;;2.71;100.00;95919.00;1026605;28;20057;-70
2022/11/14 00:56:46;;;;;;;82.13;21.48;;;;;;;2.68;100.00;95922.03;1026186;28;20031;-69
2022/11/14 00:57:16;;;;;;;94.93;23.15;;;;;;;2.69;100.00;95915.84;1030555;28;20042;-70
2022/11/14 00:57:47;;;;;;;84.45;21.42;;;;;;;2.62;100.00;95905.53;1030578;28;20034;-69
2022/11/14 00:58:17;;;;;;;71.28;20.52;;;;;;;2.70;100.00;95917.44;1034588;28;20036;-70
2022/11/14 00:58:48;;;;;;;74.05;21.30;;;;;;;2.66;100.00;95911.88;1038334;28;20022;-67
2022/11/14 00:59:18;;;;;;;72.78;20.98;;;;;;;2.59;100.00;95922.28;1034501;28;20029;-69
2022/11/14 00:59:49;;;;;;;104.78;22.35;;;;;;;2.57;100.00;95913.91;1034421;28;20022;-69
2022/11/14 01:00:19;;;;;;;109.82;22.95;;;;;;;2.51;100.00;95903.59;1027822;28;20023;-68
2022/11/14 01:00:50;;;;;;;94.63;21.42;;;;;;;2.50;100.00;95918.31;1026324;28;20175;-71
2022/11/14 01:01:21;;;;;;;66.95;19.70;;;;;;;2.59;100.00;95922.28;1026577;28;20046;-70
2022/11/14 01:01:51;;;;;;;82.75;21.45;;;;;;;2.59;100.00;95927.47;1026561;28;20676;-67
2022/11/14 01:02:22;;;;;;;85.13;21.40;;;;;;;2.62;100.00;95921.06;1033904;28;20746;-69
2022/11/14 01:02:55;;;;;;;65.80;21.45;;;;;;;2.56;100.00;95904.56;1030381;28;20125;-71
2022/11/14 01:03:26;;;;;;;62.63;20.70;;;;;;;2.60;100.00;95912.69;1034556;28;20439;-70
2022/11/14 01:03:56;;;;;;;58.15;20.48;;;;;;;2.58;100.00;95904.34;1026932;28;20270;-71
2022/11/14 01:04:27;;;;;;;63.22;19.83;;;;;;;2.63;100.00;95907.13;1019020;29;20031;-70
2022/11/14 01:04:57;;;;;;;77.65;22.63;;;;;;;2.68;100.00;95914.25;1022670;28;20075;-71
2022/11/14 01:05:27;;;;;;;73.18;21.98;;;;;;;2.69;100.00;95910.69;1022484;28;20023;-71
2022/11/14 01:06:04;;;;;;;65.47;21.00;;;;;;;2.67;100.00;95912.66;1026222;28;20022;-71
2022/11/14 01:06:34;;;;;;;55.65;18.70;;;;;;;2.65;100.00;95909.47;1030412;28;20088;-68
2022/11/14 01:07:04;;;;;;;94.13;21.80;;;;;;;2.64;100.00;95907.91;1030080;28;20852;-72
2022/11/14 01:07:35;;;;;;;71.47;20.38;;;;;;;2.66;100.00;95905.91;1023102;28;20023;-70
2022/11/14 01:08:05;;;;;;;66.63;19.67;;;;;;;2.62;100.00;95902.16;1019200;28;20028;-72
2022/11/14 01:08:36;;;;;;;43.35;16.70;;;;;;;2.67;100.00;95904.91;1022320;29;20038;-70
2022/11/14 01:09:06;;;;;;;51.95;18.17;;;;;;;2.67;100.00;95907.50;1018329;29;20055;-69
2022/11/14 01:09:37;;;;;;;45.80;16.95;;;;;;;2.63;100.00;95888.97;1026529;28;20448;-69
2022/11/14 01:10:08;;;;;;;49.40;18.30;;;;;;;2.65;100.00;95899.13;1030532;28;20049;-68
2022/11/14 01:10:43;;;;;;;56.00;18.25;;;;;;;2.61;100.00;95893.56;1030396;28;20318;-72
2022/11/14 01:11:16;;;;;;;47.17;16.60;;;;;;;2.64;100.00;95890.56;1030289;28;20276;-69
2022/11/14 01:11:46;;;;;;;36.28;16.17;;;;;;;2.61;100.00;95888.38;1018401;29;20836;-69
2022/11/14 01:12:17;;;;;;;40.80;16.35;;;;;;;2.59;100.00;95891.19;1015703;29;20292;-71
2022/11/14 01:12:47;;;;;;;49.80;17.70;;;;;;;2.56;100.00;95886.44;1022682;28;20027;-67
2022/11/14 01:13:18;;;;;;;44.15;17.20;;;;;;;2.58;100.00;95884.44;1022316;28;20591;-69
2022/11/14 01:13:48;;;;;;;46.67;17.20;;;;;;;2.58;100.00;95887.03;1026365;28;20031;-70
2022/11/14 01:14:19;;;;;;;42.60;17.30;;;;;;;2.54;100.00;95883.25;1022453;29;20456;-70
2022/11/14 01:14:49;;;;;;;40.28;17.23;;;;;;;2.55;100.00;95878.88;1022748;28;20071;-68
2022/11/14 01:15:20;;;;;;;41.38;17.08;;;;;;;2.48;100.00;95868.56;1034472;28;20026;-69
2022/11/14 01:15:51;;;;;;;39.80;16.63;;;;;;;2.57;100.00;95880.22;1029261;28;20017;-69
2022/11/14 01:16:21;;;;;;;48.53;17.38;;;;;;;2.54;100.00;95875.47;1034731;28;20038;-68
2022/11/14 01:16:52;;;;;;;41.97;17.05;;;;;;;2.52;100.00;95872.31;1030406;28;20150;-71
2022/11/14 01:17:22;;;;;;;45.90;17.50;;;;;;;2.51;100.00;95873.28;1032151;28;20286;-70
2022/11/14 01:17:53;;;;;;;47.50;16.92;;;;;;;2.52;100.00;95869.72;1038507;28;20025;-71
2022/11/14 01:18:23;;;;;;;47.20;17.58;;;;;;;2.50;100.00;95871.72;1038653;28;20029;-70
2022/11/14 01:18:54;;;;;;;40.30;17.17;;;;;;;2.50;100.00;95870.94;1038371;28;20026;-70
2022/11/14 01:19:24;;;;;;;38.50;17.45;;;;;;;2.50;100.00;95858.75;1038460;28;20037;-69
2022/11/14 01:19:55;;;;;;;46.03;17.60;;;;;;;2.32;100.00;95828.41;1032888;28;20025;-69
2022/11/14 01:20:25;;;;;;;41.30;16.23;;;;;;;2.57;100.00;95859.50;1030534;28;20029;-70
2022/11/14 01:20:55;;;;;;;42.40;17.75;;;;;;;2.51;100.00;95852.56;1034211;28;20026;-70
2022/11/14 01:21:26;;;;;;;45.08;16.67;;;;;;;2.46;100.00;95847.25;1026184;28;20197;-68
2022/11/14 01:21:56;;;;;;;45.20;16.83;;;;;;;2.56;100.00;95857.16;1026618;28;20022;-70
2022/11/14 01:22:28;;;;;;;41.92;17.23;;;;;;;2.52;100.00;95855.97;1024718;28;20027;-68
2022/11/14 01:22:59;;;;;;;40.78;17.17;;;;;;;2.51;100.00;95855.16;1029297;28;20085;-69
2022/11/14 01:23:29;;;;;;;46.55;17.35;;;;;;;2.50;100.00;95857.97;1030454;28;20311;-69
2022/11/14 01:23:59;;;;;;;53.33;18.83;;;;;;;2.50;100.00;95860.56;1022955;28;20030;-70
2022/11/14 01:24:32;;;;;;;50.40;18.67;;;;;;;2.49;100.00;95849.41;1030349;28;20022;-70
2022/11/14 01:25:02;;;;;;;47.85;18.73;;;;;;;2.43;100.00;95844.28;1026345;28;20034;-69
2022/11/14 01:25:34;;;;;;;58.75;19.30;;;;;;;2.48;100.00;95847.84;1027006;28;20281;-71
2022/11/14 01:26:08;;;;;;;66.07;21.23;;;;;;;2.48;100.00;95852.19;1034058;28;20026;-69
2022/11/14 01:26:39;;;;;;;49.20;18.27;;;;;;;2.49;100.00;95859.00;1034721;28;20272;-69
2022/11/14 01:27:09;;;;;;;50.83;18.90;;;;;;;2.52;100.00;95855.97;1034618;28;20777;-71
2022/11/14 01:27:40;;;;;;;60.72;20.30;;;;;;;2.55;100.00;95858.94;1035244;28;20030;-69
2022/11/14 01:28:19;;;;;;;53.03;19.02;;;;;;;2.50;100.00;95851.00;1038065;28;20494;-70
2022/11/14 01:28:50;;;;;;;55.78;18.35;;;;;;;2.55;100.00;95860.75;1034603;28;20108;-69
2022/11/14 01:29:20;;;;;;;54.60;18.33;;;;;;;2.54;100.00;95857.34;1034676;28;20257;-70
2022/11/14 01:29:51;;;;;;;49.22;17.70;;;;;;;2.58;100.00;95858.53;1034458;28;20061;-68
2022/11/14 01:30:21;;;;;;;46.90;17.83;;;;;;;2.59;100.00;95852.34;1030667;28;20435;-72
2022/11/14 01:30:51;;;;;;;51.30;17.98;;;;;;;2.62;100.00;95860.72;1025751;28;20143;-69
2022/11/14 01:31:23;;;;;;;48.58;17.77;;;;;;;2.59;100.00;95854.94;1026818;28;20495;-71
2022/11/14 01:31:54;;;;;;;42.25;17.13;;;;;;;2.56;100.00;95855.34;1022386;28;20103;-70
2022/11/14 01:32:25;;;;;;;37.40;17.17;;;;;;;2.59;100.00;95854.94;1026255;28;20707;-70
2022/11/14 01:32:55;;;;;;;41.47;17.63;;;;;;;2.57;100.00;95851.75;1030344;28;20519;-71
2022/11/14 01:33:26;;;;;;;46.00;17.25;;;;;;;2.56;100.00;95852.75;1026678;28;20069;-70
2022/11/14 01:33:56;;;;;;;53.80;18.65;;;;;;;2.59;100.00;95852.34;1030426;28;20076;-69
2022/11/14 01:34:28;;;;;;;49.85;18.38;;;;;;;2.64;100.00;95858.69;1026625;28;20034;-69
2022/11/14 01:34:58;;;;;;;39.60;16.52;;;;;;;2.57;100.00;95846.56;1029385;28;20407;-70
2022/11/14 01:35:30;;;;;;;44.50;17.75;;;;;;;2.67;100.00;95855.69;1026695;28;20301;-70
2022/11/14 01:36:00;;;;;;;48.55;17.23;;;;;;;2.69;100.00;95859.66;1022921;28;20046;-71
2022/11/14 01:36:30;;;;;;;40.67;16.73;;;;;;;2.68;100.00;95860.63;1026312;28;20613;-70
2022/11/14 01:37:01;;;;;;;42.65;16.48;;;;;;;2.71;100.00;95869.78;1022913;28;20107;-70
2022/11/14 01:37:31;;;;;;;44.78;16.80;;;;;;;2.68;100.00;95862.44;1030647;28;20037;-71
2022/11/14 01:38:02;;;;;;;51.00;17.58;;;;;;;2.69;100.00;95869.22;1034510;28;20018;-68
2022/11/14 01:38:32;;;;;;;49.83;16.85;;;;;;;2.65;100.00;95857.66;1030411;28;20030;-69
2022/11/14 01:39:03;;;;;;;42.10;16.23;;;;;;;2.70;100.00;95868.22;1026483;28;20121;-69
2022/11/14 01:39:33;;;;;;;44.08;16.20;;;;;;;2.64;100.00;95862.06;1026800;28;20049;-70
2022/11/14 01:40:04;;;;;;;42.08;16.73;;;;;;;2.73;100.00;95867.78;1026347;28;20687;-71
2022/11/14 01:40:42;;;;;;;45.40;16.70;;;;;;;2.77;100.00;95877.53;1022377;29;20033;-69
2022/11/14 01:41:14;;;;;;;36.95;15.32;;;;;;;2.74;100.00;95877.16;1022622;29;20106;-70
2022/11/14 01:41:44;;;;;;;36.03;16.13;;;;;;;2.71;100.00;95887.94;1031781;28;20634;-70
2022/11/14 01:42:15;;;;;;;49.00;16.05;;;;;;;2.73;100.00;95886.72;1033988;28;20289;-70
2022/11/14 01:43:10;;;;;;;38.03;15.80;;;;;;;2.75;100.00;95889.09;1030114;28;20022;-71
2022/11/14 01:43:41;;;;;;;40.80;15.20;;;;;;;2.77;100.00;95889.69;1030593;28;20026;-68
2022/11/14 01:44:15;;;;;;;36.67;15.13;;;;;;;2.75;100.00;95889.09;1026487;28;20365;-68
2022/11/14 01:44:49;;;;;;;42.63;15.18;;;;;;;2.75;100.00;95894.28;1026308;28;20042;-70
2022/11/14 01:45:47;;;;;;;42.28;16.25;;;;;;;2.74;100.00;95888.31;1022454;29;20318;-71
2022/11/14 01:46:24;;;;;;;37.30;15.13;;;;;;;2.74;100.00;95888.31;1022487;28;20250;-73
2022/11/14 01:46:55;;;;;;;33.72;15.10;;;;;;;2.70;100.00;95888.94;1027209;28;20293;-70
2022/11/14 01:47:27;;;;;;;37.95;14.23;;;;;;;2.68;100.00;95891.72;1030524;28;20312;-69
2022/11/14 01:47:58;;;;;;;39.47;15.85;;;;;;;2.72;100.00;95899.91;1031705;28;20100;-69
2022/11/14 01:48:36;;;;;;;42.65;15.68;;;;;;;2.69;100.00;95897.72;1030388;28;20265;-69
2022/11/14 01:49:28;;;;;;;42.15;15.80;;;;;;;2.65;100.00;95899.13;1031907;28;20109;-70
2022/11/14 01:50:00;;;;;;;39.63;15.27;;;;;;;2.65;100.00;95893.94;1019135;28;20271;-71
2022/11/14 01:50:31;;;;;;;41.50;16.88;;;;;;;2.71;100.00;95906.84;1026426;28;20309;-71
2022/11/14 01:51:27;;;;;;;43.90;16.75;;;;;;;2.68;100.00;95903.88;1022283;28;20269;-69
2022/11/14 01:52:02;;;;;;;33.47;14.52;;;;;;;2.72;100.00;95905.88;1027540;28;20527;-70
2022/11/14 01:52:34;;;;;;;39.92;15.13;;;;;;;2.68;100.00;95903.88;1021799;28;20659;-69
2022/11/14 01:53:04;;;;;;;35.50;14.57;;;;;;;2.64;100.00;95905.31;1026317;28;20274;-69
2022/11/14 01:53:34;;;;;;;40.55;15.57;;;;;;;2.64;100.00;95902.72;1026152;28;20277;-69
2022/11/14 01:54:08;;;;;;;40.03;15.75;;;;;;;2.58;100.00;95897.38;1026711;28;20522;-67
2022/11/14 01:54:42;;;;;;;36.10;15.50;;;;;;;2.63;100.00;95907.13;1022312;29;20027;-69
2022/11/14 01:55:12;;;;;;;41.03;14.98;;;;;;;2.64;100.00;95906.09;1023031;28;20335;-69
2022/11/14 01:55:42;;;;;;;39.67;15.88;;;;;;;2.65;100.00;95904.28;1022556;29;20311;-71
2022/11/14 01:56:15;;;;;;;40.28;15.98;;;;;;;2.52;100.00;95898.22;1022534;29;20031;-70
2022/11/14 01:56:48;;;;;;;39.92;15.25;;;;;;;2.61;100.00;95909.09;1022582;28;20062;-68
2022/11/14 01:57:21;;;;;;;35.40;14.88;;;;;;;2.54;100.00;95898.78;1026261;28;20270;-70
2022/11/14 01:57:52;;;;;;;34.75;15.40;;;;;;;2.63;100.00;95916.69;1026410;28;20274;-69
2022/11/14 01:58:22;;;;;;;38.10;16.08;;;;;;;2.63;100.00;95916.69;1026425;28;21049;-71
2022/11/14 01:59:07;;;;;;;31.58;15.00;;;;;;;2.57;100.00;95913.91;1022857;28;20507;-71
2022/11/14 01:59:39;;;;;;;38.10;15.10;;;;;;;2.58;100.00;95912.94;1023939;28;20166;-71
2022/11/14 02:00:11;;;;;;;35.40;15.82;;;;;;;2.63;100.00;95917.47;1014742;29;20264;-70
2022/11/14 02:00:42;;;;;;;40.22;15.13;;;;;;;2.66;100.00;95924.03;1026560;28;20352;-71
2022/11/14 02:01:12;;;;;;;40.60;15.93;;;;;;;2.66;100.00;95916.28;1026375;28;20279;-70
2022/11/14 02:01:50;;;;;;;41.53;16.08;;;;;;;2.68;100.00;95922.03;1022796;28;20023;-71
2022/11/14 02:02:22;;;;;;;39.53;16.00;;;;;;;2.62;100.00;95905.53;1014156;29;20044;-70
2022/11/14 02:02:52;;;;;;;35.70;15.00;;;;;;;2.70;100.00;95917.44;1018459;29;20263;-71
2022/11/14 02:03:23;;;;;;;37.80;15.57;;;;;;;2.67;100.00;95910.06;1022381;29;20262;-71
2022/11/14 02:03:53;;;;;;;35.25;16.20;;;;;;;2.69;100.00;95900.31;1025235;28;20094;-70
2022/11/14 02:04:28;;;;;;;36.30;15.93;;;;;;;2.71;100.00;95913.84;1018692;29;20031;-70
2022/11/14 02:05:04;;;;;;;41.35;17.02;;;;;;;2.68;100.00;95904.66;1026462;28;20225;-71
2022/11/14 02:05:35;;;;;;;34.85;15.77;;;;;;;2.74;100.00;95910.81;1021035;29;20828;-68
2022/11/14 02:06:06;;;;;;;37.28;15.80;;;;;;;2.74;100.00;95909.03;1018444;29;20267;-71
2022/11/14 02:06:37;;;;;;;40.53;16.15;;;;;;;2.67;100.00;95900.50;1026470;28;20027;-69
2022/11/14 02:07:07;;;;;;;36.10;15.30;;;;;;;2.75;100.00;95909.81;1027822;28;20629;-69
2022/11/14 02:07:38;;;;;;;37.30;16.42;;;;;;;2.76;100.00;95911.44;1022314;29;20131;-69
2022/11/14 02:08:09;;;;;;;30.35;14.15;;;;;;;2.72;100.00;95910.25;1022483;29;20031;-70
2022/11/14 02:08:39;;;;;;;36.90;15.48;;;;;;;2.71;100.00;95904.25;1018286;29;20271;-69
2022/11/14 02:09:10;;;;;;;36.60;15.63;;;;;;;2.74;100.00;95909.03;1022434;29;20085;-69
2022/11/14 02:09:43;;;;;;;33.38;14.27;;;;;;;2.64;100.00;95897.53;1022622;28;20478;-70
2022/11/14 02:10:16;;;;;;;32.70;14.90;;;;;;;2.69;100.00;95902.91;1022392;28;20125;-69
2022/11/14 02:10:46;;;;;;;33.80;15.88;;;;;;;2.71;100.00;95908.66;1023125;28;20278;-71
2022/11/14 02:11:16;;;;;;;31.75;15.30;;;;;;;2.68;100.00;95899.50;1023009;28;20279;-70
2022/11/14 02:11:47;;;;;;;31.35;15.15;;;;;;;2.70;100.00;95901.88;1027304;28;20031;-71
2022/11/14 02:12:17;;;;;;;29.63;14.05;;;;;;;2.63;100.00;95891.56;1029938;28;20042;-69
2022/11/14 02:12:48;;;;;;;35.05;15.80;;;;;;;2.67;100.00;95904.91;1030530;28;20291;-70
2022/11/14 02:13:18;;;;;;;34.30;14.50;;;;;;;2.65;100.00;95896.53;1030259;28;20771;-72
2022/11/14 02:13:49;;;;;;;36.15;15.50;;;;;;;2.67;100.00;95902.31;1030247;28;20118;-71
2022/11/14 02:14:19;;;;;;;30.63;14.43;;;;;;;2.68;100.00;95898.69;1030266;28;20045;-70
2022/11/14 02:14:51;;;;;;;32.40;14.93;;;;;;;2.63;100.00;95890.78;1030482;28;20030;-70
2022/11/14 02:15:21;;;;;;;29.77;14.38;;;;;;;2.68;100.00;95898.69;1030484;28;20026;-69
2022/11/14 02:15:52;;;;;;;29.52;13.15;;;;;;;2.60;100.00;95892.78;1022129;28;20275;-70
2022/11/14 02:16:22;;;;;;;29.30;14.05;;;;;;;2.66;100.00;95904.09;1022480;29;20070;-70
2022/11/14 02:16:53;;;;;;;28.52;13.25;;;;;;;2.66;100.00;95895.53;1014625;29;20024;-71
2022/11/14 02:17:23;;;;;;;28.15;13.63;;;;;;;2.52;100.00;95885.25;1024313;28;20023;-69
2022/11/14 02:17:54;;;;;;;33.90;14.23;;;;;;;2.61;100.00;95890.97;1030291;28;20101;-70
2022/11/14 02:18:24;;;;;;;29.75;14.20;;;;;;;2.60;100.00;95886.81;1038486;28;20025;-71
2022/11/14 02:18:55;;;;;;;31.02;13.93;;;;;;;2.56;100.00;95881.25;1030239;28;20031;-71
2022/11/14 02:19:47;;;;;;;29.10;13.07;;;;;;;2.57;100.00;95885.41;1030371;28;20034;-72
2022/11/14 02:20:27;;;;;;;26.48;13.38;;;;;;;2.56;100.00;95876.06;1025201;28;20398;-68
2022/11/14 02:20:58;;;;;;;34.35;14.25;;;;;;;2.53;100.00;95878.28;1025866;28;20293;-71
2022/11/14 02:21:28;;;;;;;30.15;14.43;;;;;;;2.51;100.00;95877.69;1030448;28;20040;-71
2022/11/14 02:21:58;;;;;;;33.15;14.05;;;;;;;2.56;100.00;95880.47;1022302;29;20389;-70
2022/11/14 02:22:29;;;;;;;28.67;13.77;;;;;;;2.57;100.00;95877.66;1025599;28;20031;-69
2022/11/14 02:22:59;;;;;;;31.55;14.63;;;;;;;2.59;100.00;95875.66;1026489;28;20035;-70
2022/11/14 02:23:30;;;;;;;31.05;14.32;;;;;;;2.58;100.00;95875.84;1018440;29;20024;-71
2022/11/14 02:24:01;;;;;;;33.00;14.10;;;;;;;2.56;100.00;95870.09;1022721;28;20023;-70
2022/11/14 02:24:31;;;;;;;30.63;14.20;;;;;;;2.58;100.00;95879.25;1018281;29;20027;-70